sensor_id;sensor_type;location;lat;lon;timestamp;pressure;altitude;pressure_sealevel;temperature;humidity
61573;BME280;47465;43.094;12.434;2023-01-10T00:01:52;97857.81;;;5.23;100.00
61573;BME280;47465;43.094;12.434;2023-01-10T00:04:18;97824.75;;;5.05;100.00
61573;BME280;47465;43.094;12.434;2023-01-10T00:06:43;97850.53;;;5.34;100.00
61573;BME280;47465;43.094;12.434;2023-01-10T00:09:09;97860.44;;;5.65;100.00
61573;BME280;47465;43.094;12.434;2023-01-10T00:11:36;97852.16;;;5.82;100.00
61573;BME280;47465;43.094;12.434;2023-01-10T00:14:34;97860.50;;;6.01;100.00
61573;BME280;47465;43.094;12.434;2023-01-10T00:17:01;97886.59;;;6.14;100.00
61573;BME280;47465;43.094;12.434;2023-01-10T00:19:27;97887.22;;;6.24;100.00
61573;BME280;47465;43.094;12.434;2023-01-10T00:21:52;97895.84;;;6.32;100.00
61573;BME280;47465;43.094;12.434;2023-01-10T00:24:19;97896.69;;;6.34;100.00
61573;BME280;47465;43.094;12.434;2023-01-10T00:26:47;97902.78;;;6.36;100.00
61573;BME280;47465;43.094;12.434;2023-01-10T00:29:16;97888.97;;;6.27;100.00
61573;BME280;47465;43.094;12.434;2023-01-10T00:31:44;97900.41;;;6.26;100.00
61573;BME280;47465;43.094;12.434;2023-01-10T00:34:09;97871.00;;;6.05;100.00
61573;BME280;47465;43.094;12.434;2023-01-10T00:36:35;97903.13;;;6.23;100.00
61573;BME280;47465;43.094;12.434;2023-01-10T00:39:01;97894.31;;;6.22;100.00
61573;BME280;47465;43.094;12.434;2023-01-10T00:41:29;97899.53;;;6.27;100.00
61573;BME280;47465;43.094;12.434;2023-01-10T00:44:28;97896.78;;;6.30;100.00
61573;BME280;47465;43.094;12.434;2023-01-10T00:46:54;97893.88;;;6.42;100.00
61573;BME280;47465;43.094;12.434;2023-01-10T00:49:20;97910.72;;;6.36;100.00
61573;BME280;47465;43.094;12.434;2023-01-10T00:51:46;97898.09;;;6.12;100.00
61573;BME280;47465;43.094;12.434;2023-01-10T00:54:12;97925.28;;;6.15;100.00
61573;BME280;47465;43.094;12.434;2023-01-10T00:56:39;97904.13;;;5.76;100.00
61573;BME280;47465;43.094;12.434;2023-01-10T00:59:05;97932.41;;;5.70;100.00
61573;BME280;47465;43.094;12.434;2023-01-10T01:01:33;97932.28;;;5.76;100.00
61573;BME280;47465;43.094;12.434;2023-01-10T01:03:59;97918.03;;;5.85;100.00
61573;BME280;47465;43.094;12.434;2023-01-10T01:06:24;97919.84;;;5.81;100.00
61573;BME280;47465;43.094;12.434;2023-01-10T01:08:50;97942.56;;;5.88;100.00
61573;BME280;47465;43.094;12.434;2023-01-10T01:11:16;97905.25;;;5.65;100.00
61573;BME280;47465;43.094;12.434;2023-01-10T01:13:42;97926.16;;;5.74;99.16
61573;BME280;47465;43.094;12.434;2023-01-10T01:16:08;97925.88;;;5.88;96.32
61573;BME280;47465;43.094;12.434;2023-01-10T01:18:35;97933.00;;;5.84;97.58
61573;BME280;47465;43.094;12.434;2023-01-10T01:21:01;97936.25;;;5.97;94.95
61573;BME280;47465;43.094;12.434;2023-01-10T01:23:30;97955.38;;;6.08;93.48
61573;BME280;47465;43.094;12.434;2023-01-10T01:25:57;97931.09;;;5.89;94.29
61573;BME280;47465;43.094;12.434;2023-01-10T01:28:23;97956.34;;;6.03;97.04
61573;BME280;47465;43.094;12.434;2023-01-10T01:30:49;97925.28;;;5.75;96.22
61573;BME280;47465;43.094;12.434;2023-01-10T01:33:17;97956.94;;;6.17;92.35
61573;BME280;47465;43.094;12.434;2023-01-10T01:35:45;97951.88;;;6.08;92.64
61573;BME280;47465;43.094;12.434;2023-01-10T01:38:12;97979.63;;;6.24;91.55
61573;BME280;47465;43.094;12.434;2023-01-10T01:40:39;97952.69;;;6.10;90.73
61573;BME280;47465;43.094;12.434;2023-01-10T01:43:20;97982.09;;;6.33;90.37
61573;BME280;47465;43.094;12.434;2023-01-10T01:45:47;97976.94;;;6.27;90.16
61573;BME280;47465;43.094;12.434;2023-01-10T01:48:19;97986.56;;;6.30;89.76
61573;BME280;47465;43.094;12.434;2023-01-10T01:50:52;97986.38;;;6.37;88.93
61573;BME280;47465;43.094;12.434;2023-01-10T01:53:25;97985.50;;;6.37;88.54
61573;BME280;47465;43.094;12.434;2023-01-10T01:55:56;98015.28;;;6.44;88.27
61573;BME280;47465;43.094;12.434;2023-01-10T01:58:30;97997.94;;;6.33;87.55
61573;BME280;47465;43.094;12.434;2023-01-10T02:00:57;98002.31;;;6.34;87.83
61573;BME280;47465;43.094;12.434;2023-01-10T02:03:24;98024.03;;;6.46;87.20
61573;BME280;47465;43.094;12.434;2023-01-10T02:05:52;98001.47;;;6.32;87.50
61573;BME280;47465;43.094;12.434;2023-01-10T02:08:18;97987.84;;;6.12;88.78
61573;BME280;47465;43.094;12.434;2023-01-10T02:10:47;98011.44;;;6.20;88.69
61573;BME280;47465;43.094;12.434;2023-01-10T02:13:18;98043.91;;;6.25;90.25
61573;BME280;47465;43.094;12.434;2023-01-10T02:15:44;98032.63;;;6.16;89.68
61573;BME280;47465;43.094;12.434;2023-01-10T02:18:11;98024.00;;;6.07;89.33
61573;BME280;47465;43.094;12.434;2023-01-10T02:20:43;98013.63;;;5.99;89.92
61573;BME280;47465;43.094;12.434;2023-01-10T02:23:37;98043.50;;;6.01;91.73
61573;BME280;47465;43.094;12.434;2023-01-10T02:29:23;98051.53;;;5.92;91.08
61573;BME280;47465;43.094;12.434;2023-01-10T02:32:11;98047.31;;;5.83;91.58
61573;BME280;47465;43.094;12.434;2023-01-10T02:34:50;98047.31;;;5.85;91.92
61573;BME280;47465;43.094;12.434;2023-01-10T02:37:24;98066.53;;;5.91;91.48
61573;BME280;47465;43.094;12.434;2023-01-10T02:39:57;98046.47;;;5.81;93.30
61573;BME280;47465;43.094;12.434;2023-01-10T02:42:28;98061.63;;;5.71;94.79
61573;BME280;47465;43.094;12.434;2023-01-10T02:44:59;98058.34;;;5.60;95.48
61573;BME280;47465;43.094;12.434;2023-01-10T02:47:35;98056.09;;;5.37;97.33
61573;BME280;47465;43.094;12.434;2023-01-10T02:50:25;98051.81;;;5.31;97.14
61573;BME280;47465;43.094;12.434;2023-01-10T02:52:52;98078.25;;;5.27;97.68
61573;BME280;47465;43.094;12.434;2023-01-10T02:55:20;98047.38;;;4.82;99.46
61573;BME280;47465;43.094;12.434;2023-01-10T02:57:50;98071.09;;;4.81;100.00
61573;BME280;47465;43.094;12.434;2023-01-10T03:00:29;98062.56;;;4.62;100.00
61573;BME280;47465;43.094;12.434;2023-01-10T03:03:17;98064.53;;;4.49;100.00
61573;BME280;47465;43.094;12.434;2023-01-10T03:06:01;98090.75;;;4.58;100.00
61573;BME280;47465;43.094;12.434;2023-01-10T03:08:34;98097.00;;;4.49;100.00
61573;BME280;47465;43.094;12.434;2023-01-10T03:11:04;98084.13;;;4.26;100.00
61573;BME280;47465;43.094;12.434;2023-01-10T03:13:34;98106.97;;;4.26;100.00
61573;BME280;47465;43.094;12.434;2023-01-10T03:16:04;98115.81;;;4.19;100.00
61573;BME280;47465;43.094;12.434;2023-01-10T03:18:33;98111.63;;;4.02;100.00
61573;BME280;47465;43.094;12.434;2023-01-10T03:21:03;98100.47;;;3.79;100.00
61573;BME280;47465;43.094;12.434;2023-01-10T03:23:32;98125.88;;;3.81;100.00
61573;BME280;47465;43.094;12.434;2023-01-10T03:26:01;98091.91;;;3.60;100.00
61573;BME280;47465;43.094;12.434;2023-01-10T03:28:31;98097.31;;;3.46;100.00
61573;BME280;47465;43.094;12.434;2023-01-10T03:31:02;98122.63;;;3.55;100.00
61573;BME280;47465;43.094;12.434;2023-01-10T03:33:33;98147.88;;;3.74;100.00
61573;BME280;47465;43.094;12.434;2023-01-10T03:36:08;98143.41;;;3.79;100.00
61573;BME280;47465;43.094;12.434;2023-01-10T03:38:41;98138.16;;;3.82;100.00
61573;BME280;47465;43.094;12.434;2023-01-10T03:41:12;98145.00;;;3.96;100.00
61573;BME280;47465;43.094;12.434;2023-01-10T03:43:44;98154.41;;;4.18;100.00
61573;BME280;47465;43.094;12.434;2023-01-10T03:46:55;98149.63;;;4.51;100.00
61573;BME280;47465;43.094;12.434;2023-01-10T03:49:24;98152.00;;;4.71;100.00
61573;BME280;47465;43.094;12.434;2023-01-10T03:51:52;98144.69;;;4.90;100.00
61573;BME280;47465;43.094;12.434;2023-01-10T03:54:19;98129.91;;;4.81;100.00
61573;BME280;47465;43.094;12.434;2023-01-10T03:56:46;98160.41;;;4.99;100.00
61573;BME280;47465;43.094;12.434;2023-01-10T03:59:12;98168.22;;;5.05;100.00
61573;BME280;47465;43.094;12.434;2023-01-10T04:01:38;98165.63;;;5.01;100.00
61573;BME280;47465;43.094;12.434;2023-01-10T04:04:05;98168.16;;;5.10;100.00
61573;BME280;47465;43.094;12.434;2023-01-10T04:06:31;98188.16;;;5.22;100.00
61573;BME280;47465;43.094;12.434;2023-01-10T04:08:57;98145.13;;;5.23;99.17
61573;BME280;47465;43.094;12.434;2023-01-10T04:11:23;98168.44;;;5.47;98.07
61573;BME280;47465;43.094;12.434;2023-01-10T04:13:49;98154.56;;;5.36;99.78
61573;BME280;47465;43.094;12.434;2023-01-10T04:16:15;98178.91;;;5.53;97.70
61573;BME280;47465;43.094;12.434;2023-01-10T04:18:41;98171.09;;;5.46;96.50
61573;BME280;47465;43.094;12.434;2023-01-10T04:21:08;98157.28;;;5.30;97.62
61573;BME280;47465;43.094;12.434;2023-01-10T04:23:34;98185.31;;;5.35;99.87
61573;BME280;47465;43.094;12.434;2023-01-10T04:26:00;98158.63;;;5.01;100.00
61573;BME280;47465;43.094;12.434;2023-01-10T04:28:25;98178.63;;;5.13;100.00
61573;BME280;47465;43.094;12.434;2023-01-10T04:30:51;98163.91;;;4.98;100.00
61573;BME280;47465;43.094;12.434;2023-01-10T04:33:17;98204.03;;;5.19;100.00
61573;BME280;47465;43.094;12.434;2023-01-10T04:35:46;98204.06;;;5.15;100.00
61573;BME280;47465;43.094;12.434;2023-01-10T04:38:14;98197.16;;;5.08;100.00
61573;BME280;47465;43.094;12.434;2023-01-10T04:40:40;98219.94;;;5.11;100.00
61573;BME280;47465;43.094;12.434;2023-01-10T04:43:06;98213.06;;;5.01;100.00
61573;BME280;47465;43.094;12.434;2023-01-10T04:45:32;98243.69;;;5.09;100.00
61573;BME280;47465;43.094;12.434;2023-01-10T04:47:58;98238.63;;;4.94;100.00
61573;BME280;47465;43.094;12.434;2023-01-10T04:50:25;98213.41;;;4.74;100.00
61573;BME280;47465;43.094;12.434;2023-01-10T04:52:51;98217.75;;;4.79;100.00
61573;BME280;47465;43.094;12.434;2023-01-10T04:55:18;98208.13;;;4.76;100.00
61573;BME280;47465;43.094;12.434;2023-01-10T04:57:44;98208.69;;;4.98;100.00
61573;BME280;47465;43.094;12.434;2023-01-10T05:00:11;98206.69;;;5.15;100.00
61573;BME280;47465;43.094;12.434;2023-01-10T05:02:37;98244.16;;;5.39;100.00
61573;BME280;47465;43.094;12.434;2023-01-10T05:05:08;98247.56;;;5.47;99.69
61573;BME280;47465;43.094;12.434;2023-01-10T05:07:34;98261.41;;;5.62;97.43
61573;BME280;47465;43.094;12.434;2023-01-10T05:10:01;98261.00;;;5.86;93.69
61573;BME280;47465;43.094;12.434;2023-01-10T05:12:28;98248.84;;;5.76;94.12
61573;BME280;47465;43.094;12.434;2023-01-10T05:14:54;98247.94;;;5.79;95.13
61573;BME280;47465;43.094;12.434;2023-01-10T05:17:20;98280.28;;;5.94;95.74
61573;BME280;47465;43.094;12.434;2023-01-10T05:19:46;98242.56;;;5.83;93.12
61573;BME280;47465;43.094;12.434;2023-01-10T05:22:12;98281.97;;;5.99;93.19
61573;BME280;47465;43.094;12.434;2023-01-10T05:24:38;98258.28;;;5.91;93.18
61573;BME280;47465;43.094;12.434;2023-01-10T05:27:04;98280.13;;;6.02;94.44
61573;BME280;47465;43.094;12.434;2023-01-10T05:29:31;98254.19;;;5.73;95.56
61573;BME280;47465;43.094;12.434;2023-01-10T05:31:58;98260.47;;;5.64;97.31
61573;BME280;47465;43.094;12.434;2023-01-10T05:34:24;98269.25;;;5.66;96.41
61573;BME280;47465;43.094;12.434;2023-01-10T05:36:50;98263.06;;;5.69;97.18
61573;BME280;47465;43.094;12.434;2023-01-10T05:39:15;98278.97;;;5.63;98.47
61573;BME280;47465;43.094;12.434;2023-01-10T05:41:41;98263.38;;;5.46;100.00
61573;BME280;47465;43.094;12.434;2023-01-10T05:44:08;98279.22;;;5.46;100.00
61573;BME280;47465;43.094;12.434;2023-01-10T05:46:35;98277.63;;;5.34;100.00
61573;BME280;47465;43.094;12.434;2023-01-10T05:49:01;98315.25;;;5.47;100.00
61573;BME280;47465;43.094;12.434;2023-01-10T05:51:27;98316.91;;;5.52;100.00
61573;BME280;47465;43.094;12.434;2023-01-10T05:53:53;98301.44;;;5.29;100.00
61573;BME280;47465;43.094;12.434;2023-01-10T05:56:19;98312.06;;;5.20;100.00
61573;BME280;47465;43.094;12.434;2023-01-10T05:58:45;98325.16;;;5.29;100.00
61573;BME280;47465;43.094;12.434;2023-01-10T06:01:10;98334.78;;;5.33;100.00
61573;BME280;47465;43.094;12.434;2023-01-10T06:03:38;98343.63;;;5.26;100.00
61573;BME280;47465;43.094;12.434;2023-01-10T06:06:04;98343.69;;;5.23;100.00
61573;BME280;47465;43.094;12.434;2023-01-10T06:08:30;98367.34;;;5.28;100.00
61573;BME280;47465;43.094;12.434;2023-01-10T06:10:56;98376.13;;;5.27;100.00
61573;BME280;47465;43.094;12.434;2023-01-10T06:13:22;98328.13;;;5.00;100.00
61573;BME280;47465;43.094;12.434;2023-01-10T06:15:48;98377.88;;;5.28;100.00
61573;BME280;47465;43.094;12.434;2023-01-10T06:18:14;98384.88;;;5.32;100.00
61573;BME280;47465;43.094;12.434;2023-01-10T06:20:42;98388.38;;;5.32;100.00
61573;BME280;47465;43.094;12.434;2023-01-10T06:23:09;98364.97;;;5.06;100.00
61573;BME280;47465;43.094;12.434;2023-01-10T06:25:36;98388.50;;;5.20;100.00
61573;BME280;47465;43.094;12.434;2023-01-10T06:28:05;98378.06;;;5.12;100.00
61573;BME280;47465;43.094;12.434;2023-01-10T06:30:31;98408.69;;;5.24;100.00
61573;BME280;47465;43.094;12.434;2023-01-10T06:32:59;98383.41;;;5.05;100.00
61573;BME280;47465;43.094;12.434;2023-01-10T06:35:26;98380.03;;;4.97;100.00
61573;BME280;47465;43.094;12.434;2023-01-10T06:37:53;98373.16;;;4.82;100.00
61573;BME280;47465;43.094;12.434;2023-01-10T06:40:19;98389.72;;;4.91;100.00
61573;BME280;47465;43.094;12.434;2023-01-10T06:42:45;98396.66;;;4.99;100.00
61573;BME280;47465;43.094;12.434;2023-01-10T06:45:11;98433.38;;;5.15;100.00
61573;BME280;47465;43.094;12.434;2023-01-10T06:47:37;98413.38;;;4.96;100.00
61573;BME280;47465;43.094;12.434;2023-01-10T06:50:04;98422.06;;;5.06;100.00
61573;BME280;47465;43.094;12.434;2023-01-10T06:52:30;98423.00;;;5.02;100.00
61573;BME280;47465;43.094;12.434;2023-01-10T06:54:57;98406.38;;;4.93;100.00
61573;BME280;47465;43.094;12.434;2023-01-10T06:57:23;98416.00;;;4.96;100.00
61573;BME280;47465;43.094;12.434;2023-01-10T06:59:49;98412.56;;;4.92;100.00
61573;BME280;47465;43.094;12.434;2023-01-10T07:02:15;98422.19;;;4.95;100.00
61573;BME280;47465;43.094;12.434;2023-01-10T07:04:41;98434.50;;;4.93;100.00
61573;BME280;47465;43.094;12.434;2023-01-10T07:07:07;98431.16;;;4.77;100.00
61573;BME280;47465;43.094;12.434;2023-01-10T07:09:33;98449.47;;;4.88;100.00
61573;BME280;47465;43.094;12.434;2023-01-10T07:12:00;98475.72;;;4.99;100.00
61573;BME280;47465;43.094;12.434;2023-01-10T07:14:26;98485.31;;;5.04;100.00
61573;BME280;47465;43.094;12.434;2023-01-10T07:16:52;98485.28;;;5.07;100.00
61573;BME280;47465;43.094;12.434;2023-01-10T07:19:18;98459.09;;;4.92;100.00
61573;BME280;47465;43.094;12.434;2023-01-10T07:21:44;98473.06;;;5.00;100.00
61573;BME280;47465;43.094;12.434;2023-01-10T07:24:11;98460.03;;;4.83;100.00
61573;BME280;47465;43.094;12.434;2023-01-10T07:26:36;98495.88;;;5.06;100.00
61573;BME280;47465;43.094;12.434;2023-01-10T07:29:04;98460.09;;;4.80;100.00
61573;BME280;47465;43.094;12.434;2023-01-10T07:31:30;98518.59;;;5.18;100.00
61573;BME280;47465;43.094;12.434;2023-01-10T07:33:56;98472.25;;;4.93;100.00
61573;BME280;47465;43.094;12.434;2023-01-10T07:36:22;98505.41;;;5.16;100.00
61573;BME280;47465;43.094;12.434;2023-01-10T07:38:48;98481.72;;;5.14;100.00
61573;BME280;47465;43.094;12.434;2023-01-10T07:41:13;98517.47;;;5.42;100.00
61573;BME280;47465;43.094;12.434;2023-01-10T07:43:39;98519.16;;;5.47;100.00
61573;BME280;47465;43.094;12.434;2023-01-10T07:46:08;98508.53;;;5.55;100.00
61573;BME280;47465;43.094;12.434;2023-01-10T07:48:36;98534.66;;;5.78;100.00
61573;BME280;47465;43.094;12.434;2023-01-10T07:51:04;98509.25;;;5.69;100.00
61573;BME280;47465;43.094;12.434;2023-01-10T07:53:30;98524.88;;;5.86;100.00
61573;BME280;47465;43.094;12.434;2023-01-10T07:55:58;98509.06;;;5.83;100.00
61573;BME280;47465;43.094;12.434;2023-01-10T07:58:24;98516.03;;;5.90;100.00
61573;BME280;47465;43.094;12.434;2023-01-10T08:00:50;98519.53;;;5.95;100.00
61573;BME280;47465;43.094;12.434;2023-01-10T08:03:18;98525.75;;;5.90;100.00
61573;BME280;47465;43.094;12.434;2023-01-10T08:05:44;98535.28;;;6.00;100.00
61573;BME280;47465;43.094;12.434;2023-01-10T08:08:11;98519.50;;;5.99;100.00
61573;BME280;47465;43.094;12.434;2023-01-10T08:10:38;98540.41;;;6.14;100.00
61573;BME280;47465;43.094;12.434;2023-01-10T08:13:04;98540.44;;;6.11;100.00
61573;BME280;47465;43.094;12.434;2023-01-10T08:15:30;98548.38;;;6.09;100.00
61573;BME280;47465;43.094;12.434;2023-01-10T08:17:58;98574.69;;;6.19;100.00
61573;BME280;47465;43.094;12.434;2023-01-10T08:20:26;98586.97;;;6.21;100.00
61573;BME280;47465;43.094;12.434;2023-01-10T08:22:52;98544.22;;;5.90;100.00
61573;BME280;47465;43.094;12.434;2023-01-10T08:25:18;98543.31;;;5.91;100.00
61573;BME280;47465;43.094;12.434;2023-01-10T08:27:44;98549.44;;;5.91;100.00
61573;BME280;47465;43.094;12.434;2023-01-10T08:30:10;98584.44;;;6.12;100.00
61573;BME280;47465;43.094;12.434;2023-01-10T08:32:37;98545.88;;;5.94;100.00
61573;BME280;47465;43.094;12.434;2023-01-10T08:35:05;98572.19;;;6.05;100.00
61573;BME280;47465;43.094;12.434;2023-01-10T08:37:32;98555.59;;;5.93;100.00
61573;BME280;47465;43.094;12.434;2023-01-10T08:39:59;98558.22;;;5.93;100.00
61573;BME280;47465;43.094;12.434;2023-01-10T08:42:25;98556.41;;;6.00;100.00
61573;BME280;47465;43.094;12.434;2023-01-10T08:44:51;98581.03;;;6.04;100.00
61573;BME280;47465;43.094;12.434;2023-01-10T08:47:17;98612.47;;;6.22;100.00
61573;BME280;47465;43.094;12.434;2023-01-10T08:49:43;98575.84;;;5.94;100.00
61573;BME280;47465;43.094;12.434;2023-01-10T08:52:09;98570.53;;;5.97;100.00
61573;BME280;47465;43.094;12.434;2023-01-10T08:54:36;98582.75;;;6.05;100.00
61573;BME280;47465;43.094;12.434;2023-01-10T08:57:02;98595.94;;;6.06;100.00
61573;BME280;47465;43.094;12.434;2023-01-10T08:59:28;98604.66;;;6.16;100.00
61573;BME280;47465;43.094;12.434;2023-01-10T09:01:54;98617.66;;;6.31;100.00
61573;BME280;47465;43.094;12.434;2023-01-10T09:04:23;98623.75;;;6.36;100.00
61573;BME280;47465;43.094;12.434;2023-01-10T09:06:49;98653.31;;;6.66;100.00
61573;BME280;47465;43.094;12.434;2023-01-10T09:09:15;98661.88;;;6.84;100.00
61573;BME280;47465;43.094;12.434;2023-01-10T09:11:42;98629.31;;;6.82;98.41
61573;BME280;47465;43.094;12.434;2023-01-10T09:14:08;98636.78;;;7.12;99.72
61573;BME280;47465;43.094;12.434;2023-01-10T09:16:34;98657.50;;;7.40;99.51
61573;BME280;47465;43.094;12.434;2023-01-10T09:18:59;98641.69;;;7.37;98.76
61573;BME280;47465;43.094;12.434;2023-01-10T09:21:26;98652.16;;;7.45;97.08
61573;BME280;47465;43.094;12.434;2023-01-10T09:23:53;98674.00;;;7.57;96.65
61573;BME280;47465;43.094;12.434;2023-01-10T09:26:19;98668.59;;;7.64;96.72
61573;BME280;47465;43.094;12.434;2023-01-10T09:28:46;98674.00;;;7.57;96.87
61573;BME280;47465;43.094;12.434;2023-01-10T09:31:14;98656.59;;;7.41;96.87
61573;BME280;47465;43.094;12.434;2023-01-10T09:33:40;98668.94;;;7.42;96.57
61573;BME280;47465;43.094;12.434;2023-01-10T09:36:07;98650.72;;;7.24;96.36
61573;BME280;47465;43.094;12.434;2023-01-10T09:38:34;98686.63;;;7.40;97.28
61573;BME280;47465;43.094;12.434;2023-01-10T09:44:05;98674.09;;;7.51;97.65
61573;BME280;47465;43.094;12.434;2023-01-10T09:46:49;98682.50;;;7.76;95.74
61573;BME280;47465;43.094;12.434;2023-01-10T09:49:23;98686.75;;;7.85;95.64
61573;BME280;47465;43.094;12.434;2023-01-10T09:51:52;98698.06;;;7.93;95.48
61573;BME280;47465;43.094;12.434;2023-01-10T09:54:25;98712.50;;;8.27;96.18
61573;BME280;47465;43.094;12.434;2023-01-10T09:56:53;98718.38;;;8.44;93.99
61573;BME280;47465;43.094;12.434;2023-01-10T09:59:23;98695.41;;;8.43;90.95
61573;BME280;47465;43.094;12.434;2023-01-10T10:01:53;98689.16;;;8.47;90.24
61573;BME280;47465;43.094;12.434;2023-01-10T10:04:26;98684.69;;;8.51;89.73
61573;BME280;47465;43.094;12.434;2023-01-10T10:06:53;98711.59;;;8.74;89.49
61573;BME280;47465;43.094;12.434;2023-01-10T10:09:22;98691.50;;;8.62;89.26
61573;BME280;47465;43.094;12.434;2023-01-10T10:11:59;98682.66;;;8.63;88.83
61573;BME280;47465;43.094;12.434;2023-01-10T10:14:45;98711.28;;;8.88;88.02
61573;BME280;47465;43.094;12.434;2023-01-10T10:17:25;98701.69;;;8.82;86.26
61573;BME280;47465;43.094;12.434;2023-01-10T10:20:02;98724.31;;;9.00;87.50
61573;BME280;47465;43.094;12.434;2023-01-10T10:22:37;98679.56;;;8.83;86.19
61573;BME280;47465;43.094;12.434;2023-01-10T10:25:18;98711.69;;;9.12;86.50
61573;BME280;47465;43.094;12.434;2023-01-10T10:28:08;98695.91;;;9.04;85.68
61573;BME280;47465;43.094;12.434;2023-01-10T10:30:44;98723.88;;;9.20;85.56
61573;BME280;47465;43.094;12.434;2023-01-10T10:33:28;98677.63;;;8.92;85.19
61573;BME280;47465;43.094;12.434;2023-01-10T10:36:02;98708.06;;;9.16;84.06
61573;BME280;47465;43.094;12.434;2023-01-10T10:38:33;98667.78;;;8.97;84.40
61573;BME280;47465;43.094;12.434;2023-01-10T10:41:01;98689.00;;;8.97;83.68
61573;BME280;47465;43.094;12.434;2023-01-10T10:43:31;98707.47;;;9.01;84.32
61573;BME280;47465;43.094;12.434;2023-01-10T10:46:01;98695.28;;;8.93;84.25
61573;BME280;47465;43.094;12.434;2023-01-10T10:48:31;98712.00;;;8.96;84.69
61573;BME280;47465;43.094;12.434;2023-01-10T10:51:03;98703.31;;;8.90;83.88
61573;BME280;47465;43.094;12.434;2023-01-10T10:53:31;98701.63;;;8.86;84.23
61573;BME280;47465;43.094;12.434;2023-01-10T10:55:58;98722.59;;;8.98;82.35
61573;BME280;47465;43.094;12.434;2023-01-10T10:58:25;98699.94;;;8.81;82.15
61573;BME280;47465;43.094;12.434;2023-01-10T11:00:51;98722.75;;;8.90;82.03
61573;BME280;47465;43.094;12.434;2023-01-10T11:03:30;98695.59;;;8.77;81.11
61573;BME280;47465;43.094;12.434;2023-01-10T11:05:58;98728.88;;;8.92;80.07
61573;BME280;47465;43.094;12.434;2023-01-10T11:08:27;98709.63;;;8.82;81.08
61573;BME280;47465;43.094;12.434;2023-01-10T11:10:56;98734.91;;;9.00;81.74
61573;BME280;47465;43.094;12.434;2023-01-10T11:13:30;98708.28;;;9.05;78.08
61573;BME280;47465;43.094;12.434;2023-01-10T11:16:01;98729.16;;;9.20;79.57
61573;BME280;47465;43.094;12.434;2023-01-10T11:18:30;98727.50;;;9.15;81.55
61573;BME280;47465;43.094;12.434;2023-01-10T11:20:59;98718.78;;;9.10;82.13
61573;BME280;47465;43.094;12.434;2023-01-10T11:23:36;98704.66;;;9.09;83.67
61573;BME280;47465;43.094;12.434;2023-01-10T11:26:04;98693.25;;;9.04;82.34
61573;BME280;47465;43.094;12.434;2023-01-10T11:28:32;98703.81;;;9.07;83.41
61573;BME280;47465;43.094;12.434;2023-01-10T11:30:59;98742.31;;;9.27;83.20
61573;BME280;47465;43.094;12.434;2023-01-10T11:33:27;98728.31;;;9.20;83.22
61573;BME280;47465;43.094;12.434;2023-01-10T11:36:01;98737.88;;;9.27;82.63
61573;BME280;47465;43.094;12.434;2023-01-10T11:38:28;98721.06;;;9.27;83.03
61573;BME280;47465;43.094;12.434;2023-01-10T11:40:57;98702.59;;;9.22;83.88
61573;BME280;47465;43.094;12.434;2023-01-10T11:43:27;98701.56;;;9.28;83.72
61573;BME280;47465;43.094;12.434;2023-01-10T11:45:54;98711.22;;;9.32;82.39
61573;BME280;47465;43.094;12.434;2023-01-10T11:48:21;98713.84;;;9.33;82.90
61573;BME280;47465;43.094;12.434;2023-01-10T11:50:49;98708.44;;;9.38;84.00
61573;BME280;47465;43.094;12.434;2023-01-10T11:53:39;98720.63;;;9.46;82.54
61573;BME280;47465;43.094;12.434;2023-01-10T11:56:09;98699.59;;;9.37;83.01
61573;BME280;47465;43.094;12.434;2023-01-10T11:58:37;98737.84;;;9.66;83.94
61573;BME280;47465;43.094;12.434;2023-01-10T12:01:04;98731.59;;;9.69;83.17
61573;BME280;47465;43.094;12.434;2023-01-10T12:03:31;98690.50;;;9.48;82.41
61573;BME280;47465;43.094;12.434;2023-01-10T12:06:02;98706.97;;;9.62;81.69
61573;BME280;47465;43.094;12.434;2023-01-10T12:08:30;98709.66;;;9.60;82.47
61573;BME280;47465;43.094;12.434;2023-01-10T12:11:03;98688.72;;;9.48;82.86
61573;BME280;47465;43.094;12.434;2023-01-10T12:13:42;98698.25;;;9.57;83.33
61573;BME280;47465;43.094;12.434;2023-01-10T12:16:20;98734.00;;;9.78;81.30
61573;BME280;47465;43.094;12.434;2023-01-10T12:18:47;98710.44;;;9.65;80.59
61573;BME280;47465;43.094;12.434;2023-01-10T12:21:16;98714.56;;;9.77;80.38
61573;BME280;47465;43.094;12.434;2023-01-10T12:23:45;98697.66;;;9.80;79.96
61573;BME280;47465;43.094;12.434;2023-01-10T12:26:15;98703.75;;;9.85;79.19
61573;BME280;47465;43.094;12.434;2023-01-10T12:28:43;98683.38;;;9.85;79.81
61573;BME280;47465;43.094;12.434;2023-01-10T12:31:12;98692.97;;;9.91;77.10
61573;BME280;47465;43.094;12.434;2023-01-10T12:33:42;98727.19;;;10.03;78.76
61573;BME280;47465;43.094;12.434;2023-01-10T12:36:18;98733.09;;;10.15;77.20
61573;BME280;47465;43.094;12.434;2023-01-10T12:38:54;98716.56;;;10.03;76.48
61573;BME280;47465;43.094;12.434;2023-01-10T12:41:34;98734.19;;;10.06;76.14
61573;BME280;47465;43.094;12.434;2023-01-10T12:44:39;98737.38;;;10.20;72.78
61573;BME280;47465;43.094;12.434;2023-01-10T12:47:16;98717.34;;;10.07;75.55
61573;BME280;47465;43.094;12.434;2023-01-10T12:49:46;98699.63;;;10.07;76.22
61573;BME280;47465;43.094;12.434;2023-01-10T12:52:17;98705.59;;;10.17;78.27
61573;BME280;47465;43.094;12.434;2023-01-10T12:54:46;98705.75;;;10.11;78.00
61573;BME280;47465;43.094;12.434;2023-01-10T12:57:21;98695.88;;;10.15;76.88
61573;BME280;47465;43.094;12.434;2023-01-10T12:59:50;98689.81;;;10.11;77.67
61573;BME280;47465;43.094;12.434;2023-01-10T13:02:21;98709.13;;;10.16;78.28
61573;BME280;47465;43.094;12.434;2023-01-10T13:04:51;98708.19;;;10.19;78.79
61573;BME280;47465;43.094;12.434;2023-01-10T13:07:19;98678.41;;;10.06;74.92
61573;BME280;47465;43.094;12.434;2023-01-10T13:09:46;98710.97;;;10.14;75.10
61573;BME280;47465;43.094;12.434;2023-01-10T13:12:16;98683.81;;;10.03;75.57